Oxnard, California
Current Conditions -  °F | °C
As of 7:51 AM on Sunday 21 Dec 2014 (Local Time) from KOXR Reporting Station
Clear Clear  
Wind Chill: 54°   Ceiling: Unl
Heat Index: 54°   Visibility: 10mi
Dew Point: 49°   Wind: 6mph
Humidity: 83%   Direction: 90°E
Pressure: 30.14"   Gusts: NA
Location:  34.2°N, 119.18°W
Report Text: KOXR 211551Z 09005KT 10SM CLR 12/09 A3014 RMK AO2 SLP205 T01220094
Loading
Personal Weather Stations






























Interactive Weather Map New forecast layout! Learn more

10-Day Weather Forecast

Advertisements
Track Severe Weather on mobile